| time (UTC) | temp F | wind direction | speed MPH | gust MPH | rain 1hr in | rain 24hr in | rain mn in | humidity % | barometer mb |
| 20260503184916 | 60 | 249 | 0.0 | 0.0 | 0.00 | 0.00 | 0.00 | 40 | 1052.9 |
| 20260503184413 | 61 | 217 | 0.0 | 0.0 | 0.00 | 0.00 | 0.00 | 34 | 1052.9 |
| 20260503183910 | 61 | 304 | 0.0 | 0.0 | 0.00 | 0.00 | 0.00 | 34 | 1053.0 |
| 20260503183406 | 61 | 190 | 0.0 | 0.0 | 0.00 | 0.00 | 0.00 | 39 | 1053.0 |
| 20260503182903 | 60 | 148 | 0.0 | 0.0 | 0.00 | 0.00 | 0.00 | 36 | 1053.2 |
| 20260503182403 | 60 | 266 | 0.0 | 0.0 | 0.00 | 0.00 | 0.00 | 35 | 1052.9 |
| 20260503181859 | 60 | 244 | 0.0 | 0.0 | 0.00 | 0.00 | 0.00 | 40 | 1052.8 |
| 20260503181356 | 60 | 235 | 0.0 | 0.0 | 0.00 | 0.00 | 0.00 | 37 | 1053.1 |
| 20260503180853 | 60 | 89 | 0.0 | 0.0 | 0.00 | 0.00 | 0.00 | 38 | 1053.3 |
| 20260503180351 | 60 | 287 | 0.0 | 0.0 | 0.00 | 0.00 | 0.00 | 41 | 1053.3 |
| 20260503175847 | 59 | 254 | 0.0 | 0.0 | 0.00 | 0.00 | 0.00 | 32 | 1053.5 |
| 20260503175345 | 60 | 314 | 0.0 | 0.0 | 0.00 | 0.00 | 0.00 | 36 | 1053.6 |
| 20260503174840 | 60 | 258 | 0.0 | 0.0 | 0.00 | 0.00 | 0.00 | 39 | 1053.7 |
| 20260503174339 | 60 | 216 | 0.0 | 0.0 | 0.00 | 0.00 | 0.00 | 35 | 1053.7 |
| 20260503173834 | 60 | 298 | 0.0 | 0.0 | 0.00 | 0.00 | 0.00 | 37 | 1053.6 |
| 20260503173331 | 59 | 190 | 0.0 | 0.0 | 0.00 | 0.00 | 0.00 | 32 | 1054.1 |
| 20260503172827 | 60 | 294 | 0.0 | 0.0 | 0.00 | 0.00 | 0.00 | 33 | 1054.0 |
| 20260503172325 | 60 | 252 | 0.0 | 0.0 | 0.00 | 0.00 | 0.00 | 33 | 1054.1 |
| 20260503171821 | 59 | 262 | 0.0 | 0.0 | 0.00 | 0.00 | 0.00 | 37 | 1054.1 |
| 20260503171318 | 59 | 250 | 0.0 | 0.0 | 0.00 | 0.00 | 0.00 | 38 | 1054.4 |
| 20260503170815 | 60 | 155 | 0.0 | 0.0 | 0.00 | 0.00 | 0.00 | 37 | 1054.5 |
| 20260503170311 | 59 | 171 | 0.0 | 0.0 | 0.00 | 0.00 | 0.00 | 35 | 1054.5 |
| 20260503150704 | 56 | 292 | 0.0 | 0.0 | 0.00 | 0.00 | 0.00 | 40 | 1055.4 |
| 20260503150200 | 56 | 285 | 0.0 | 0.0 | 0.00 | 0.00 | 0.00 | 43 | 1055.4 |
| 20260503140124 | 53 | 271 | 0.0 | 0.0 | 0.00 | 0.00 | 0.00 | 48 | 1055.6 |
| 20260503131054 | 47 | 255 | 0.0 | 0.0 | 0.00 | 0.00 | 0.00 | 66 | 1055.4 |
| 20260503130550 | 46 | 281 | 0.0 | 0.0 | 0.00 | 0.00 | 0.00 | 69 | 1055.1 |
| 20260503110441 | 30 | 40 | 0.0 | 0.0 | 0.00 | 0.00 | 0.00 | 96 | 1054.6 |
| 20260503090332 | 30 | 99 | 0.0 | 0.0 | 0.00 | 0.00 | 0.00 | 95 | 1054.2 |
| 20260503081300 | 31 | 99 | 0.0 | 0.0 | 0.00 | 0.00 | 0.00 | 94 | 1053.7 |
| 20260503080756 | 31 | 99 | 0.0 | 0.0 | 0.00 | 0.00 | 0.00 | 93 | 1053.6 |
| 20260503080253 | 31 | 99 | 0.0 | 0.0 | 0.00 | 0.00 | 0.00 | 93 | 1053.6 |
| 20260503072730 | 32 | 99 | 0.0 | 0.0 | 0.00 | 0.00 | 0.00 | 92 | 1053.5 |
| 20260503072226 | 32 | 99 | 0.0 | 0.0 | 0.00 | 0.00 | 0.00 | 92 | 1053.5 |
| 20260503071723 | 32 | 99 | 0.0 | 0.0 | 0.00 | 0.00 | 0.00 | 91 | 1053.5 |
| 20260503071220 | 33 | 99 | 0.0 | 0.0 | 0.00 | 0.00 | 0.00 | 91 | 1053.3 |
| 20260503070717 | 32 | 96 | 0.0 | 0.0 | 0.00 | 0.00 | 0.00 | 90 | 1053.4 |
| 20260503070215 | 33 | 95 | 0.0 | 0.0 | 0.00 | 0.00 | 0.00 | 90 | 1053.4 |
| 20260503060139 | 36 | 96 | 0.0 | 0.0 | 0.00 | 0.00 | 0.00 | 78 | 1053.6 |
| 20260503054626 | 38 | 96 | 0.0 | 0.0 | 0.00 | 0.00 | 0.00 | 74 | 1053.7 |
| 20260503054123 | 38 | 97 | 0.0 | 0.0 | 0.00 | 0.00 | 0.00 | 73 | 1053.7 |
| 20260503053621 | 38 | 96 | 0.0 | 0.0 | 0.00 | 0.00 | 0.00 | 73 | 1053.4 |
| 20260503053120 | 39 | 96 | 0.0 | 0.0 | 0.00 | 0.00 | 0.00 | 72 | 1053.8 |
| 20260503052616 | 39 | 96 | 0.0 | 0.0 | 0.00 | 0.00 | 0.00 | 72 | 1053.8 |
| 20260503052112 | 39 | 96 | 0.0 | 0.0 | 0.00 | 0.00 | 0.00 | 72 | 1053.8 |
| 20260503051608 | 40 | 96 | 0.0 | 0.0 | 0.00 | 0.00 | 0.00 | 70 | 1053.7 |
| 20260503051106 | 40 | 96 | 0.0 | 0.0 | 0.00 | 0.00 | 0.00 | 69 | 1053.6 |
| 20260503050601 | 40 | 96 | 0.0 | 0.0 | 0.00 | 0.00 | 0.00 | 68 | 1053.8 |
| 20260503050059 | 40 | 96 | 0.0 | 0.0 | 0.00 | 0.00 | 0.00 | 68 | 1053.8 |
| 20260503045555 | 40 | 110 | 0.0 | 0.0 | 0.00 | 0.00 | 0.00 | 69 | 1053.6 |
| 20260503045053 | 40 | 109 | 0.0 | 0.0 | 0.00 | 0.00 | 0.00 | 70 | 1053.7 |
| 20260503044549 | 41 | 103 | 0.0 | 0.0 | 0.00 | 0.00 | 0.00 | 67 | 1053.7 |
| 20260503044047 | 42 | 78 | 0.0 | 0.0 | 0.00 | 0.00 | 0.00 | 66 | 1053.4 |
| 20260503043543 | 42 | 43 | 0.0 | 0.0 | 0.00 | 0.00 | 0.00 | 65 | 1053.6 |
| 20260503043040 | 42 | 44 | 0.0 | 0.0 | 0.00 | 0.00 | 0.00 | 65 | 1053.7 |
| 20260503042537 | 42 | 31 | 0.0 | 0.0 | 0.00 | 0.00 | 0.00 | 65 | 1053.4 |
| 20260503042033 | 42 | 39 | 0.0 | 0.0 | 0.00 | 0.00 | 0.00 | 65 | 1053.4 |
| 20260503041530 | 42 | 31 | 0.0 | 0.0 | 0.00 | 0.00 | 0.00 | 65 | 1053.4 |
| 20260503041028 | 42 | 35 | 0.0 | 0.0 | 0.00 | 0.00 | 0.00 | 65 | 1053.5 |
| 20260503040525 | 43 | 43 | 0.0 | 0.0 | 0.00 | 0.00 | 0.00 | 65 | 1053.6 |
| 20260503040022 | 42 | 18 | 0.0 | 0.0 | 0.00 | 0.00 | 0.00 | 65 | 1053.4 |
| 20260503035519 | 42 | 44 | 0.0 | 0.0 | 0.00 | 0.00 | 0.00 | 66 | 1053.3 |
| 20260503035016 | 43 | 338 | 0.0 | 0.0 | 0.00 | 0.00 | 0.00 | 66 | 1053.3 |
| 20260503034514 | 43 | 25 | 0.0 | 0.0 | 0.00 | 0.00 | 0.00 | 66 | 1053.3 |
| 20260503034010 | 42 | 27 | 0.0 | 0.0 | 0.00 | 0.00 | 0.00 | 67 | 1053.2 |
| 20260503033508 | 43 | 33 | 0.0 | 0.0 | 0.00 | 0.00 | 0.00 | 67 | 1053.5 |
| 20260503033006 | 43 | 29 | 0.0 | 0.0 | 0.00 | 0.00 | 0.00 | 66 | 1053.1 |
| 20260503032504 | 43 | 9 | 0.0 | 0.0 | 0.00 | 0.00 | 0.00 | 67 | 1053.1 |
| 20260503032002 | 43 | 33 | 0.0 | 0.0 | 0.00 | 0.00 | 0.00 | 67 | 1053.1 |
| 20260503031459 | 44 | 33 | 0.0 | 0.0 | 0.00 | 0.00 | 0.00 | 66 | 1053.1 |
| 20260503030955 | 45 | 31 | 0.0 | 0.0 | 0.00 | 0.00 | 0.00 | 64 | 1053.1 |
| 20260503030452 | 45 | 19 | 0.0 | 0.0 | 0.00 | 0.00 | 0.00 | 63 | 1053.0 |
| 20260503025949 | 45 | 33 | 0.0 | 0.0 | 0.00 | 0.00 | 0.00 | 62 | 1053.3 |
| 20260503025446 | 45 | 22 | 0.0 | 0.0 | 0.00 | 0.00 | 0.00 | 62 | 1053.0 |
| 20260503024943 | 45 | 335 | 0.0 | 0.0 | 0.00 | 0.00 | 0.00 | 63 | 1053.2 |
| 20260503024439 | 46 | 326 | 0.0 | 0.0 | 0.00 | 0.00 | 0.00 | 63 | 1053.0 |
| 20260503023937 | 45 | 355 | 0.0 | 0.0 | 0.00 | 0.00 | 0.00 | 64 | 1053.0 |
| 20260503023434 | 44 | 326 | 0.0 | 0.0 | 0.00 | 0.00 | 0.00 | 65 | 1052.9 |
| 20260503022931 | 44 | 339 | 0.0 | 0.0 | 0.00 | 0.00 | 0.00 | 67 | 1052.9 |
| 20260503022426 | 43 | 355 | 0.0 | 0.0 | 0.00 | 0.00 | 0.00 | 69 | 1053.1 |
| 20260503021922 | 43 | 342 | 0.0 | 0.0 | 0.00 | 0.00 | 0.00 | 69 | 1052.8 |
| 20260503021418 | 44 | 344 | 0.0 | 0.0 | 0.00 | 0.00 | 0.00 | 67 | 1052.7 |
| 20260503020916 | 44 | 344 | 0.0 | 0.0 | 0.00 | 0.00 | 0.00 | 67 | 1052.5 |
| 20260503020414 | 45 | 343 | 0.0 | 0.0 | 0.00 | 0.00 | 0.00 | 64 | 1052.2 |
| 20260503015909 | 45 | 317 | 0.0 | 0.0 | 0.00 | 0.00 | 0.00 | 63 | 1052.1 |
| 20260503015407 | 45 | 317 | 0.0 | 0.0 | 0.00 | 0.00 | 0.00 | 62 | 1052.2 |
| 20260503014902 | 46 | 317 | 0.0 | 0.0 | 0.00 | 0.00 | 0.00 | 62 | 1052.1 |
| 20260503014400 | 46 | 317 | 0.0 | 0.0 | 0.00 | 0.00 | 0.00 | 60 | 1052.1 |
| 20260503013858 | 47 | 317 | 0.0 | 0.0 | 0.00 | 0.00 | 0.00 | 61 | 1052.1 |
| 20260503013354 | 47 | 317 | 0.0 | 0.0 | 0.00 | 0.00 | 0.00 | 60 | 1052.4 |
| 20260503012851 | 48 | 318 | 0.0 | 0.0 | 0.00 | 0.00 | 0.00 | 58 | 1052.0 |
| 20260503012349 | 48 | 318 | 0.0 | 0.0 | 0.00 | 0.00 | 0.00 | 58 | 1052.1 |
| 20260503011846 | 48 | 317 | 0.0 | 0.0 | 0.00 | 0.00 | 0.00 | 57 | 1052.1 |
| 20260503011343 | 48 | 317 | 0.0 | 0.0 | 0.00 | 0.00 | 0.00 | 58 | 1052.0 |
| 20260503010839 | 48 | 317 | 0.0 | 0.0 | 0.00 | 0.00 | 0.00 | 57 | 1051.9 |
| 20260503010336 | 49 | 300 | 0.0 | 0.0 | 0.00 | 0.00 | 0.00 | 57 | 1051.8 |
| 20260503005833 | 49 | 312 | 0.0 | 0.0 | 0.00 | 0.00 | 0.00 | 57 | 1051.8 |
| 20260503005331 | 49 | 319 | 0.0 | 0.0 | 0.00 | 0.00 | 0.00 | 56 | 1051.9 |
| 20260503004826 | 49 | 312 | 0.0 | 0.0 | 0.00 | 0.00 | 0.00 | 56 | 1051.6 |
| 20260503004324 | 49 | 310 | 0.0 | 0.0 | 0.00 | 0.00 | 0.00 | 56 | 1051.9 |
| 20260503003822 | 49 | 322 | 0.0 | 0.0 | 0.00 | 0.00 | 0.00 | 56 | 1051.6 |
| 20260503003318 | 49 | 303 | 0.0 | 0.0 | 0.00 | 0.00 | 0.00 | 55 | 1051.7 |
| 20260503002815 | 50 | 324 | 0.0 | 0.0 | 0.00 | 0.00 | 0.00 | 53 | 1051.5 |
| 20260503002312 | 50 | 321 | 0.0 | 0.0 | 0.00 | 0.00 | 0.00 | 54 | 1051.5 |
| 20260503001809 | 50 | 310 | 0.0 | 0.0 | 0.00 | 0.00 | 0.00 | 53 | 1051.4 |
| 20260503001305 | 50 | 312 | 0.0 | 0.0 | 0.00 | 0.00 | 0.00 | 52 | 1051.1 |
| 20260503000803 | 51 | 312 | 0.0 | 0.0 | 0.00 | 0.00 | 0.00 | 50 | 1051.2 |
| 20260503000300 | 51 | 301 | 0.0 | 0.0 | 0.00 | 0.00 | 0.00 | 50 | 1051.3 |
| 20260502235757 | 52 | 303 | 0.0 | 0.0 | 0.00 | 0.00 | 0.00 | 50 | 1051.2 |
| 20260502235254 | 51 | 306 | 0.0 | 0.0 | 0.00 | 0.00 | 0.00 | 48 | 1051.1 |
| 20260502234750 | 51 | 308 | 0.0 | 0.0 | 0.00 | 0.00 | 0.00 | 49 | 1050.9 |
| 20260502234248 | 51 | 302 | 0.0 | 0.0 | 0.00 | 0.00 | 0.00 | 50 | 1051.3 |
| 20260502233744 | 52 | 311 | 0.0 | 0.0 | 0.00 | 0.00 | 0.00 | 49 | 1051.1 |
| 20260502233241 | 53 | 298 | 0.0 | 0.0 | 0.00 | 0.00 | 0.00 | 48 | 1050.8 |
| 20260502232737 | 54 | 318 | 0.0 | 0.0 | 0.00 | 0.00 | 0.00 | 46 | 1051.0 |
| 20260502232234 | 54 | 330 | 0.0 | 0.0 | 0.00 | 0.00 | 0.00 | 47 | 1050.9 |
| 20260502231730 | 55 | 329 | 0.0 | 0.0 | 0.00 | 0.00 | 0.00 | 45 | 1051.0 |
| 20260502231228 | 54 | 322 | 0.0 | 0.0 | 0.00 | 0.00 | 0.00 | 46 | 1050.9 |
| 20260502230727 | 53 | 337 | 0.0 | 0.0 | 0.00 | 0.00 | 0.00 | 50 | 1050.9 |
| 20260502230225 | 53 | 2 | 0.0 | 0.0 | 0.00 | 0.00 | 0.00 | 49 | 1050.9 |
| 20260502225720 | 53 | 4 | 0.0 | 0.0 | 0.00 | 0.00 | 0.00 | 49 | 1051.0 |
| 20260502225218 | 54 | 334 | 0.0 | 0.0 | 0.00 | 0.00 | 0.00 | 50 | 1051.0 |
| 20260502224714 | 54 | 12 | 0.0 | 0.0 | 0.00 | 0.00 | 0.00 | 50 | 1051.2 |
| 20260502224211 | 54 | 27 | 0.0 | 0.0 | 0.00 | 0.00 | 0.00 | 50 | 1051.0 |
| 20260502223708 | 53 | 12 | 0.0 | 0.0 | 0.00 | 0.00 | 0.00 | 49 | 1051.0 |
| 20260502223206 | 53 | 312 | 0.0 | 0.0 | 0.00 | 0.00 | 0.00 | 51 | 1051.1 |
| 20260502222704 | 53 | 335 | 0.0 | 0.0 | 0.00 | 0.00 | 0.00 | 51 | 1051.1 |
| 20260502222200 | 53 | 306 | 0.0 | 0.0 | 0.00 | 0.00 | 0.00 | 51 | 1051.1 |
| 20260502221656 | 53 | 323 | 0.0 | 0.0 | 0.00 | 0.00 | 0.00 | 54 | 1051.3 |
| 20260502221153 | 53 | 289 | 0.0 | 0.0 | 0.00 | 0.00 | 0.00 | 51 | 1051.2 |
| 20260502220649 | 54 | 276 | 0.0 | 0.0 | 0.00 | 0.00 | 0.00 | 50 | 1051.3 |
| 20260502220145 | 54 | 283 | 0.0 | 0.0 | 0.00 | 0.00 | 0.00 | 51 | 1051.3 |
| 20260502215643 | 53 | 277 | 0.0 | 0.0 | 0.00 | 0.00 | 0.00 | 49 | 1051.2 |
| 20260502215139 | 53 | 316 | 0.0 | 0.0 | 0.00 | 0.00 | 0.00 | 52 | 1051.0 |
| 20260502214637 | 53 | 319 | 0.0 | 0.0 | 0.00 | 0.00 | 0.00 | 50 | 1050.9 |
| 20260502214134 | 54 | 320 | 0.0 | 0.0 | 0.00 | 0.00 | 0.00 | 50 | 1051.0 |
| 20260502213631 | 54 | 285 | 0.0 | 0.0 | 0.00 | 0.00 | 0.00 | 53 | 1051.0 |
| 20260502213128 | 54 | 302 | 0.0 | 0.0 | 0.00 | 0.00 | 0.00 | 53 | 1051.0 |
| 20260502212627 | 53 | 289 | 0.0 | 0.0 | 0.00 | 0.00 | 0.00 | 50 | 1051.2 |
| 20260502212125 | 53 | 306 | 0.0 | 0.0 | 0.00 | 0.00 | 0.00 | 51 | 1051.0 |
| 20260502211626 | 53 | 298 | 0.0 | 0.0 | 0.00 | 0.00 | 0.00 | 51 | 1051.0 |
| 20260502211123 | 53 | 285 | 0.0 | 0.0 | 0.00 | 0.00 | 0.00 | 52 | 1050.9 |
| 20260502210621 | 53 | 306 | 0.0 | 0.0 | 0.00 | 0.00 | 0.00 | 52 | 1050.9 |
| 20260502210118 | 53 | 346 | 0.0 | 0.0 | 0.00 | 0.00 | 0.00 | 56 | 1051.0 |
| 20260502205614 | 53 | 331 | 0.0 | 0.0 | 0.00 | 0.00 | 0.00 | 49 | 1051.0 |
| 20260502205111 | 53 | 281 | 0.0 | 0.0 | 0.00 | 0.00 | 0.00 | 53 | 1051.0 |
| 20260502204608 | 53 | 330 | 0.0 | 0.0 | 0.00 | 0.00 | 0.00 | 50 | 1051.1 |
| 20260502204105 | 53 | 326 | 0.0 | 0.0 | 0.00 | 0.00 | 0.00 | 51 | 1051.0 |
| 20260502203602 | 54 | 338 | 0.0 | 0.0 | 0.00 | 0.00 | 0.00 | 49 | 1051.3 |
| 20260502203100 | 54 | 286 | 0.0 | 0.0 | 0.00 | 0.00 | 0.00 | 51 | 1050.9 |
| 20260502202555 | 54 | 309 | 0.0 | 0.0 | 0.00 | 0.00 | 0.00 | 52 | 1051.1 |
| 20260502202054 | 54 | 318 | 0.0 | 0.0 | 0.00 | 0.00 | 0.00 | 48 | 1051.2 |
| 20260502201549 | 54 | 320 | 0.0 | 0.0 | 0.00 | 0.00 | 0.00 | 49 | 1051.2 |
| 20260502201046 | 54 | 326 | 0.0 | 0.0 | 0.00 | 0.00 | 0.00 | 48 | 1051.4 |
| 20260502200542 | 54 | 1 | 0.0 | 0.0 | 0.00 | 0.00 | 0.00 | 51 | 1051.4 |
| 20260502200040 | 54 | 322 | 0.0 | 0.0 | 0.00 | 0.00 | 0.00 | 48 | 1051.5 |
| 20260502195537 | 54 | 326 | 0.0 | 0.0 | 0.00 | 0.00 | 0.00 | 48 | 1051.4 |
| 20260502195033 | 54 | 321 | 0.0 | 0.0 | 0.00 | 0.00 | 0.00 | 49 | 1051.6 |
| 20260502194530 | 55 | 313 | 0.0 | 0.0 | 0.00 | 0.00 | 0.00 | 48 | 1051.4 |
| 20260502194026 | 56 | 9 | 0.0 | 0.0 | 0.00 | 0.00 | 0.00 | 47 | 1051.5 |
| 20260502193523 | 55 | 277 | 0.0 | 0.0 | 0.00 | 0.00 | 0.00 | 49 | 1051.4 |
| 20260502193020 | 55 | 335 | 0.0 | 0.0 | 0.00 | 0.00 | 0.00 | 47 | 1051.4 |
| 20260502192515 | 55 | 13 | 0.0 | 0.0 | 0.00 | 0.00 | 0.00 | 48 | 1051.3 |
| 20260502192014 | 54 | 327 | 0.0 | 0.0 | 0.00 | 0.00 | 0.00 | 51 | 1051.2 |
| 20260502191510 | 53 | 321 | 0.0 | 0.0 | 0.00 | 0.00 | 0.00 | 49 | 1051.4 |
| 20260502191008 | 53 | 352 | 0.0 | 0.0 | 0.00 | 0.00 | 0.00 | 51 | 1051.5 |
| 20260502190505 | 52 | 7 | 0.0 | 0.0 | 0.00 | 0.00 | 0.00 | 54 | 1051.5 |
| 20260502190001 | 52 | 33 | 0.0 | 0.0 | 0.00 | 0.00 | 0.00 | 55 | 1051.4 |
| 20260502185457 | 52 | 23 | 0.0 | 0.0 | 0.00 | 0.00 | 0.00 | 53 | 1051.4 |